createdAt,value
2018-04-10T00:01:18.210Z,10.70
2018-04-10T00:03:47.408Z,10.60
2018-04-10T00:06:15.705Z,10.60
2018-04-10T00:08:44.032Z,10.70
2018-04-10T00:11:13.125Z,10.60
2018-04-10T00:13:41.517Z,10.50
2018-04-10T00:16:09.828Z,10.70
2018-04-10T00:18:38.129Z,10.70
2018-04-10T00:21:06.456Z,10.80
2018-04-10T00:23:34.840Z,10.90
2018-04-10T00:26:03.258Z,10.90
2018-04-10T00:28:31.581Z,10.80
2018-04-10T00:31:00.652Z,10.70
2018-04-10T00:33:28.983Z,10.70
2018-04-10T00:35:57.311Z,10.60
2018-04-10T00:38:25.636Z,10.50
2018-04-10T00:40:53.928Z,10.60
2018-04-10T00:43:22.280Z,10.70
2018-04-10T00:45:51.348Z,10.50
2018-04-10T00:48:19.690Z,10.40
2018-04-10T00:50:48.011Z,10.40
2018-04-10T00:53:28.191Z,10.40
2018-04-10T00:55:56.519Z,10.40
2018-04-10T00:58:25.616Z,10.50
2018-04-10T01:00:53.949Z,10.50
2018-04-10T01:03:23.041Z,10.50
2018-04-10T01:05:52.880Z,10.60
2018-04-10T01:08:21.172Z,10.60
2018-04-10T01:10:49.504Z,10.60
2018-04-10T01:13:18.564Z,10.60
2018-04-10T01:15:46.904Z,10.60
2018-04-10T01:18:15.208Z,10.50
2018-04-10T01:20:43.553Z,10.50
2018-04-10T01:23:11.897Z,10.60
2018-04-10T01:25:40.301Z,10.50
2018-04-10T01:28:08.681Z,10.60
2018-04-10T01:30:36.972Z,10.50
2018-04-10T01:33:05.297Z,10.40
2018-04-10T01:35:33.592Z,10.20
2018-04-10T01:38:02.018Z,10.20
2018-04-10T01:40:30.312Z,10.30
2018-04-10T01:42:58.687Z,10.40
2018-04-10T01:45:27.720Z,10.40
2018-04-10T01:47:56.051Z,10.40
2018-04-10T01:50:24.352Z,10.50
2018-04-10T01:52:52.682Z,10.50
2018-04-10T01:55:20.981Z,10.50
2018-04-10T01:57:50.172Z,10.60
2018-04-10T02:00:18.577Z,10.60
2018-04-10T02:02:46.918Z,10.70
2018-04-10T02:05:15.989Z,10.80
2018-04-10T02:07:44.300Z,10.80
2018-04-10T02:10:12.644Z,10.90
2018-04-10T02:12:41.931Z,11.00
2018-04-10T02:15:10.233Z,11.00
2018-04-10T02:17:38.532Z,10.90
2018-04-10T02:20:06.865Z,10.80
2018-04-10T02:22:35.928Z,10.70
2018-04-10T02:25:04.258Z,10.70
2018-04-10T02:27:32.556Z,10.60
2018-04-10T02:30:00.872Z,10.60
2018-04-10T02:32:29.224Z,10.60
2018-04-10T02:34:57.581Z,10.60
2018-04-10T02:37:25.872Z,10.60
2018-04-10T02:39:54.209Z,10.50
2018-04-10T02:42:23.304Z,10.40
2018-04-10T02:44:51.600Z,10.40
2018-04-10T02:47:19.929Z,10.40
2018-04-10T02:49:48.984Z,10.30
2018-04-10T02:52:17.307Z,10.30
2018-04-10T02:54:45.631Z,10.30
2018-04-10T02:57:13.932Z,10.30
2018-04-10T02:59:42.440Z,10.40
2018-04-10T03:02:10.735Z,10.40
2018-04-10T03:04:39.032Z,10.40
2018-04-10T03:07:07.464Z,10.40
2018-04-10T03:09:36.533Z,10.40
2018-04-10T03:12:04.829Z,10.40
2018-04-10T03:14:33.160Z,10.40
2018-04-10T03:17:01.509Z,10.40
2018-04-10T03:19:29.815Z,10.40
2018-04-10T03:21:58.168Z,10.30
2018-04-10T03:24:26.504Z,10.30
2018-04-10T03:26:55.566Z,10.30
2018-04-10T03:29:23.892Z,10.30
2018-04-10T03:31:52.193Z,10.30
2018-04-10T03:34:20.520Z,10.30
2018-04-10T03:36:49.594Z,10.30
2018-04-10T03:39:17.920Z,10.20
2018-04-10T03:41:46.975Z,10.30
2018-04-10T03:44:16.076Z,10.20
2018-04-10T03:46:44.410Z,10.20
2018-04-10T03:49:12.789Z,10.30
2018-04-10T03:51:42.781Z,10.30
2018-04-10T03:54:11.143Z,10.20
2018-04-10T03:56:40.229Z,10.10
2018-04-10T03:59:08.528Z,10.00
2018-04-10T04:01:36.857Z,9.90
2018-04-10T04:04:05.949Z,9.90
2018-04-10T04:06:34.244Z,9.90
2018-04-10T04:09:02.544Z,10.00
2018-04-10T04:11:30.868Z,9.90
2018-04-10T04:13:59.397Z,9.90
2018-04-10T04:16:40.365Z,9.70
2018-04-10T04:19:20.547Z,9.70
2018-04-10T04:21:56.508Z,9.70
2018-04-10T04:24:24.802Z,9.80
2018-04-10T04:26:53.120Z,9.90
2018-04-10T04:29:21.418Z,10.00
2018-04-10T04:31:51.424Z,10.10
2018-04-10T04:34:20.517Z,10.10
2018-04-10T04:36:48.812Z,10.10
2018-04-10T04:39:17.161Z,10.10
2018-04-10T04:41:45.456Z,10.20
2018-04-10T04:44:13.801Z,10.20
2018-04-10T04:46:42.116Z,10.20
2018-04-10T04:49:10.464Z,10.20
2018-04-10T04:51:38.776Z,10.30
2018-04-10T04:54:07.102Z,10.30
2018-04-10T04:56:35.428Z,10.40
2018-04-10T04:59:03.724Z,10.50
2018-04-10T05:01:32.032Z,10.50
2018-04-10T05:04:00.364Z,10.60
2018-04-10T05:06:29.425Z,10.70
2018-04-10T05:08:57.873Z,10.70
2018-04-10T05:11:26.940Z,10.70
2018-04-10T05:13:55.477Z,10.70
2018-04-10T05:16:23.776Z,10.70
2018-04-10T05:18:52.069Z,10.80
2018-04-10T05:21:20.400Z,10.80
2018-04-10T05:23:48.725Z,10.90
2018-04-10T05:26:17.795Z,11.00
2018-04-10T05:28:46.124Z,11.00
2018-04-10T05:31:14.457Z,11.10
2018-04-10T05:33:42.764Z,11.10
2018-04-10T05:36:11.080Z,11.20
2018-04-10T05:38:39.430Z,11.20
2018-04-10T05:41:07.729Z,11.20
2018-04-10T05:43:36.056Z,11.30
2018-04-10T05:46:05.116Z,11.60
2018-04-10T05:48:33.453Z,11.60
2018-04-10T05:51:01.787Z,11.80
2018-04-10T05:53:30.884Z,11.90
2018-04-10T05:55:59.184Z,11.90
2018-04-10T05:58:27.527Z,11.80
2018-04-10T06:00:55.833Z,11.90
2018-04-10T06:03:24.249Z,12.00
2018-04-10T06:05:52.553Z,12.20
2018-04-10T06:08:20.880Z,12.20
2018-04-10T06:10:49.208Z,12.20
2018-04-10T06:13:17.500Z,12.20
2018-04-10T06:15:45.833Z,12.30
2018-04-10T06:18:14.916Z,12.30
2018-04-10T06:20:43.268Z,12.30
2018-04-10T06:23:11.651Z,12.30
2018-04-10T06:25:39.961Z,12.50
2018-04-10T06:28:09.053Z,12.60
2018-04-10T06:30:37.546Z,12.60
2018-04-10T06:33:05.839Z,12.70
2018-04-10T06:35:34.150Z,12.80
2018-04-10T06:38:02.479Z,12.90
2018-04-10T06:40:31.554Z,13.20
2018-04-10T06:42:59.885Z,13.20
2018-04-10T06:45:28.185Z,13.10
2018-04-10T06:47:56.516Z,13.00
2018-04-10T06:50:25.582Z,13.20
2018-04-10T06:52:54.107Z,13.20
2018-04-10T06:55:22.402Z,13.30
2018-04-10T06:57:50.701Z,13.30
2018-04-10T07:00:19.044Z,13.20
2018-04-10T07:02:48.141Z,13.40
2018-04-10T07:05:16.486Z,13.40
2018-04-10T07:07:44.812Z,13.70
2018-04-10T07:10:13.157Z,13.80
2018-04-10T07:12:41.480Z,13.90
2018-04-10T07:15:10.588Z,14.10
2018-04-10T07:17:39.654Z,14.20
2018-04-10T07:20:07.976Z,14.20
2018-04-10T07:22:36.305Z,14.50
2018-04-10T07:25:04.633Z,14.60
2018-04-10T07:27:32.919Z,14.70
2018-04-10T07:30:02.408Z,14.90
2018-04-10T07:32:30.705Z,14.90
2018-04-10T07:34:59.006Z,15.10
2018-04-10T07:37:27.331Z,15.10
2018-04-10T07:39:55.682Z,15.00
2018-04-10T07:42:23.969Z,15.10
2018-04-10T07:44:53.029Z,14.90
2018-04-10T07:47:21.360Z,14.90
2018-04-10T07:49:49.694Z,15.30
2018-04-10T07:52:18.784Z,15.40
2018-04-10T07:54:47.071Z,15.40
2018-04-10T07:57:15.406Z,15.50
2018-04-10T07:59:44.469Z,15.70
2018-04-10T08:02:12.823Z,15.70
2018-04-10T08:04:41.904Z,15.80
2018-04-10T08:07:10.228Z,15.80
2018-04-10T08:09:38.532Z,16.00
2018-04-10T08:12:07.609Z,16.10
2018-04-10T08:14:35.945Z,16.00
2018-04-10T08:17:04.242Z,15.90
2018-04-10T08:19:32.537Z,16.10
2018-04-10T08:22:00.860Z,16.60
2018-04-10T08:24:29.159Z,16.90
2018-04-10T08:26:57.493Z,16.60
2018-04-10T08:29:26.589Z,16.60
2018-04-10T08:31:54.875Z,16.60
2018-04-10T08:34:23.227Z,16.70
2018-04-10T08:36:52.273Z,16.90
2018-04-10T08:39:20.599Z,16.90
2018-04-10T08:41:48.894Z,17.00
2018-04-10T08:44:18.049Z,17.20
2018-04-10T08:46:46.336Z,17.20
2018-04-10T08:49:14.680Z,17.30
2018-04-10T08:51:42.994Z,17.40
2018-04-10T08:54:11.298Z,17.50
2018-04-10T08:56:39.626Z,17.60
2018-04-10T08:59:07.918Z,17.50
2018-04-10T09:01:36.536Z,17.50
2018-04-10T09:04:04.828Z,17.70
2018-04-10T09:06:33.130Z,17.90
2018-04-10T09:09:01.455Z,18.00
2018-04-10T09:11:29.735Z,18.10
2018-04-10T09:13:58.073Z,18.30
2018-04-10T09:16:26.362Z,18.50
2018-04-10T09:18:54.676Z,18.60
2018-04-10T09:21:22.977Z,18.70
2018-04-10T09:23:51.306Z,18.70
2018-04-10T09:26:19.605Z,18.80
2018-04-10T09:28:48.693Z,18.70
2018-04-10T09:31:16.995Z,18.70
2018-04-10T09:33:45.477Z,18.80
2018-04-10T09:36:13.781Z,18.70
2018-04-10T09:38:42.079Z,18.50
2018-04-10T09:41:10.406Z,18.60
2018-04-10T09:43:38.803Z,18.60
2018-04-10T09:46:07.067Z,18.70
2018-04-10T09:48:35.393Z,18.80
2018-04-10T09:51:03.695Z,18.80
2018-04-10T09:53:32.020Z,19.00
2018-04-10T09:56:00.314Z,19.10
2018-04-10T09:58:28.641Z,19.40
2018-04-10T10:00:57.732Z,19.40
2018-04-10T10:03:26.428Z,19.40
2018-04-10T10:05:54.726Z,19.20
2018-04-10T10:08:23.064Z,19.30
2018-04-10T10:10:51.361Z,19.50
2018-04-10T10:13:19.693Z,19.60
2018-04-10T10:15:47.985Z,19.70
2018-04-10T10:18:17.084Z,19.80
2018-04-10T10:20:45.368Z,19.80
2018-04-10T10:23:13.708Z,19.90
2018-04-10T10:25:42.801Z,20.30
2018-04-10T10:28:11.099Z,20.30
2018-04-10T10:30:39.453Z,20.20
2018-04-10T10:33:07.753Z,20.30
2018-04-10T10:35:36.864Z,20.40
2018-04-10T10:38:05.191Z,20.40
2018-04-10T10:40:33.513Z,20.50
2018-04-10T10:43:01.809Z,20.80
2018-04-10T10:45:30.132Z,21.10
2018-04-10T10:47:58.459Z,20.80
2018-04-10T10:50:27.544Z,20.80
2018-04-10T10:52:55.837Z,20.80
2018-04-10T10:55:24.169Z,21.00
2018-04-10T10:57:52.465Z,21.20
2018-04-10T11:00:20.788Z,21.10
2018-04-10T11:02:49.868Z,21.40
2018-04-10T11:05:18.174Z,21.40
2018-04-10T11:07:46.539Z,21.70
2018-04-10T11:10:15.605Z,22.20
2018-04-10T11:12:43.900Z,22.20
2018-04-10T11:15:12.520Z,22.40
2018-04-10T11:17:40.821Z,22.70
2018-04-10T11:20:09.167Z,22.70
2018-04-10T11:22:39.151Z,22.30
2018-04-10T11:25:07.484Z,22.30
2018-04-10T11:27:35.772Z,22.40
2018-04-10T11:30:04.110Z,22.50
2018-04-10T11:32:32.436Z,22.40
2018-04-10T11:35:00.973Z,22.40
2018-04-10T11:37:29.260Z,22.30
2018-04-10T11:39:57.552Z,22.10
2018-04-10T11:42:25.867Z,22.00
2018-04-10T11:44:54.170Z,22.00
2018-04-10T11:47:22.722Z,22.10
2018-04-10T11:49:50.992Z,22.20
2018-04-10T11:52:19.296Z,22.30
2018-04-10T11:54:47.617Z,22.40
2018-04-10T11:57:15.924Z,22.40
2018-04-10T11:59:44.208Z,22.50
2018-04-10T12:02:12.562Z,22.50
2018-04-10T12:04:40.862Z,22.50
2018-04-10T12:07:09.157Z,22.40
2018-04-10T12:09:37.497Z,22.60
2018-04-10T12:12:05.797Z,22.80
2018-04-10T12:14:34.124Z,23.20
2018-04-10T12:17:02.421Z,23.20
2018-04-10T12:19:30.717Z,23.20
2018-04-10T12:21:59.053Z,23.10
2018-04-10T12:24:28.140Z,23.30
2018-04-10T12:26:56.436Z,23.30
2018-04-10T12:29:24.761Z,23.30
2018-04-10T12:31:53.053Z,23.20
2018-04-10T12:34:21.388Z,23.20
2018-04-10T12:36:50.446Z,23.20
2018-04-10T12:39:18.736Z,23.20
2018-04-10T12:41:47.066Z,23.20
2018-04-10T12:44:15.361Z,23.50
2018-04-10T12:46:43.692Z,23.60
2018-04-10T12:49:11.988Z,23.60
2018-04-10T12:51:40.276Z,23.70
2018-04-10T12:54:08.653Z,23.80
2018-04-10T12:56:37.172Z,23.80
2018-04-10T12:59:05.558Z,23.90
2018-04-10T13:01:33.972Z,23.90
2018-04-10T13:04:02.306Z,23.90
2018-04-10T13:06:30.625Z,23.90
2018-04-10T13:09:00.020Z,24.20
2018-04-10T13:11:28.356Z,24.20
2018-04-10T13:13:57.520Z,24.20
2018-04-10T13:16:25.886Z,24.20
2018-04-10T13:18:54.300Z,24.20
2018-04-10T13:21:22.612Z,24.30
2018-04-10T13:23:50.931Z,24.30
2018-04-10T13:26:19.260Z,24.30
2018-04-10T13:28:47.540Z,24.40
2018-04-10T13:31:16.061Z,24.40
2018-04-10T13:33:44.429Z,24.40
2018-04-10T13:36:12.852Z,24.50
2018-04-10T13:38:41.430Z,24.40
2018-04-10T13:41:10.189Z,24.50
2018-04-10T13:43:39.566Z,24.40
2018-04-10T13:46:08.836Z,24.20
2018-04-10T13:48:38.064Z,24.20
2018-04-10T13:51:06.587Z,24.20
2018-04-10T13:53:35.053Z,24.30
2018-04-10T13:56:03.512Z,24.30
2018-04-10T13:58:32.193Z,24.20
2018-04-10T14:01:00.768Z,24.20
2018-04-10T14:03:29.220Z,24.30
2018-04-10T14:05:57.794Z,24.40
2018-04-10T14:08:26.105Z,24.50
2018-04-10T14:10:54.531Z,24.30
2018-04-10T14:13:22.813Z,24.40
2018-04-10T14:15:51.139Z,24.50
2018-04-10T14:18:19.465Z,24.40
2018-04-10T14:20:48.659Z,24.50
2018-04-10T14:23:17.152Z,24.50
2018-04-10T14:25:45.443Z,24.40
2018-04-10T14:28:13.756Z,24.20
2018-04-10T14:30:42.076Z,24.20
2018-04-10T14:33:10.368Z,24.20
2018-04-10T14:35:38.841Z,24.20
2018-04-10T14:38:07.136Z,24.30
2018-04-10T14:40:35.452Z,24.30
2018-04-10T14:43:03.786Z,24.40
2018-04-10T14:45:32.117Z,24.50
2018-04-10T14:48:01.421Z,24.20
2018-04-10T14:50:29.759Z,24.20
2018-04-10T14:52:58.838Z,24.10
2018-04-10T14:55:27.157Z,24.10
2018-04-10T14:57:55.441Z,24.10
2018-04-10T15:00:23.757Z,24.20
2018-04-10T15:02:52.085Z,24.10
2018-04-10T15:05:21.168Z,24.10
2018-04-10T15:07:49.465Z,24.10
2018-04-10T15:10:17.775Z,24.00
2018-04-10T15:12:46.065Z,24.10
2018-04-10T15:15:14.381Z,24.20
2018-04-10T15:17:42.669Z,24.10
2018-04-10T15:20:10.996Z,24.10
2018-04-10T15:22:39.465Z,24.10
2018-04-10T15:25:07.757Z,24.10
2018-04-10T15:27:36.044Z,24.20
2018-04-10T15:30:04.375Z,24.20
2018-04-10T15:32:32.673Z,24.30
2018-04-10T15:35:01.006Z,24.30
2018-04-10T15:37:29.315Z,24.50
2018-04-10T15:39:58.381Z,25.00
2018-04-10T15:42:26.660Z,25.00
2018-04-10T15:44:55.165Z,25.10
2018-04-10T15:47:23.498Z,25.20
2018-04-10T15:49:51.780Z,24.90
2018-04-10T15:52:20.103Z,24.90
2018-04-10T15:54:48.380Z,24.40
2018-04-10T15:57:16.692Z,24.20
2018-04-10T15:59:44.980Z,24.40
2018-04-10T16:02:13.294Z,24.70
2018-04-10T16:04:41.573Z,24.90
2018-04-10T16:07:10.681Z,24.60
2018-04-10T16:09:39.757Z,24.30
2018-04-10T16:12:08.164Z,24.30
2018-04-10T16:14:36.456Z,23.80
2018-04-10T16:17:04.789Z,23.60
2018-04-10T16:19:33.080Z,23.70
2018-04-10T16:22:01.576Z,23.90
2018-04-10T16:24:29.866Z,24.20
2018-04-10T16:26:58.145Z,24.60
2018-04-10T16:29:26.468Z,24.60
2018-04-10T16:31:54.751Z,24.70
2018-04-10T16:34:23.108Z,24.50
2018-04-10T16:36:51.414Z,23.90
2018-04-10T16:39:19.730Z,23.70
2018-04-10T16:41:48.785Z,23.50
2018-04-10T16:44:17.091Z,23.50
2018-04-10T16:46:45.380Z,23.20
2018-04-10T16:49:13.696Z,22.80
2018-04-10T16:51:42.012Z,22.70
2018-04-10T16:54:10.337Z,22.60
2018-04-10T16:56:38.661Z,22.40
2018-04-10T16:59:07.718Z,22.30
2018-04-10T17:01:36.068Z,22.30
2018-04-10T17:04:04.340Z,22.20
2018-04-10T17:06:32.632Z,22.10
2018-04-10T17:09:00.945Z,22.10
2018-04-10T17:11:29.233Z,22.10
2018-04-10T17:13:57.682Z,21.90
2018-04-10T17:16:25.955Z,21.80
2018-04-10T17:18:54.285Z,21.70
2018-04-10T17:21:22.580Z,21.60
2018-04-10T17:23:51.211Z,21.60
2018-04-10T17:26:20.296Z,21.40
2018-04-10T17:28:48.572Z,21.40
2018-04-10T17:31:16.894Z,21.30
2018-04-10T17:33:45.516Z,21.20
2018-04-10T17:36:13.801Z,21.10
2018-04-10T17:38:42.085Z,21.00
2018-04-10T17:41:10.408Z,20.80
2018-04-10T17:43:38.688Z,20.70
2018-04-10T17:46:07.033Z,20.60
2018-04-10T17:48:35.352Z,20.50
2018-04-10T17:51:04.433Z,20.30
2018-04-10T17:53:32.711Z,20.30
2018-04-10T17:56:01.035Z,20.20
2018-04-10T17:58:29.347Z,20.20
2018-04-10T18:00:57.669Z,20.30
2018-04-10T18:03:26.053Z,20.30
2018-04-10T18:05:54.368Z,20.20
2018-04-10T18:08:22.760Z,20.10
2018-04-10T18:10:51.044Z,20.00
2018-04-10T18:13:19.333Z,20.00
2018-04-10T18:15:47.649Z,19.70
2018-04-10T18:18:15.970Z,19.60
2018-04-10T18:20:44.259Z,19.60
2018-04-10T18:23:12.593Z,19.50
2018-04-10T18:25:40.876Z,19.50
2018-04-10T18:28:09.196Z,19.40
2018-04-10T18:30:37.492Z,19.30
2018-04-10T18:33:05.781Z,19.30
2018-04-10T18:35:34.095Z,19.30
2018-04-10T18:38:02.376Z,19.30
2018-04-10T18:40:31.901Z,19.30
2018-04-10T18:43:00.190Z,19.20
2018-04-10T18:45:28.469Z,19.10
2018-04-10T18:47:56.801Z,19.20
2018-04-10T18:50:25.116Z,19.00
2018-04-10T18:52:53.412Z,19.00
2018-04-10T18:55:21.728Z,18.90
2018-04-10T18:57:50.012Z,18.90
2018-04-10T19:00:18.327Z,18.90
2018-04-10T19:02:46.649Z,18.80
2018-04-10T19:05:14.928Z,18.80
2018-04-10T19:07:43.254Z,18.70
2018-04-10T19:10:12.341Z,18.70
2018-04-10T19:12:40.656Z,18.70
2018-04-10T19:15:09.051Z,18.60
2018-04-10T19:17:37.342Z,18.60
2018-04-10T19:20:05.806Z,18.50
2018-04-10T19:22:34.877Z,18.50
2018-04-10T19:25:03.191Z,18.40
2018-04-10T19:27:31.522Z,18.50
2018-04-10T19:30:00.606Z,18.40
2018-04-10T19:32:28.932Z,18.40
2018-04-10T19:34:57.228Z,18.50
2018-04-10T19:37:25.569Z,18.40
2018-04-10T19:39:53.893Z,18.10
2018-04-10T19:42:22.200Z,17.90
2018-04-10T19:44:50.520Z,17.70
2018-04-10T19:47:20.044Z,17.60
2018-04-10T19:49:48.337Z,17.40
2018-04-10T19:52:16.630Z,17.30
2018-04-10T19:54:44.966Z,17.20
2018-04-10T19:57:13.260Z,17.00
2018-04-10T19:59:41.561Z,17.00
2018-04-10T20:02:09.977Z,17.20
2018-04-10T20:04:39.070Z,17.10
2018-04-10T20:07:07.394Z,17.00
2018-04-10T20:09:35.761Z,17.10
2018-04-10T20:12:04.053Z,17.00
2018-04-10T20:14:32.384Z,16.90
2018-04-10T20:17:00.700Z,16.70
2018-04-10T20:19:28.993Z,16.70
2018-04-10T20:21:57.489Z,16.60
2018-04-10T20:24:25.801Z,16.50
2018-04-10T20:26:54.177Z,16.50
2018-04-10T20:29:22.469Z,16.40
2018-04-10T20:31:50.788Z,16.40
2018-04-10T20:34:19.116Z,16.40
2018-04-10T20:36:47.405Z,16.50
2018-04-10T20:39:15.719Z,16.50
2018-04-10T20:41:44.040Z,16.50
2018-04-10T20:44:13.140Z,16.60
2018-04-10T20:46:41.757Z,16.60
2018-04-10T20:49:10.068Z,16.50
2018-04-10T20:51:38.392Z,16.50
2018-04-10T20:54:07.514Z,16.40
2018-04-10T20:56:36.600Z,16.40
2018-04-10T20:59:04.936Z,16.40
2018-04-10T21:01:34.023Z,16.50
2018-04-10T21:04:02.351Z,16.50
2018-04-10T21:06:31.749Z,16.40
2018-04-10T21:09:00.044Z,16.30
2018-04-10T21:11:28.336Z,16.30
2018-04-10T21:13:56.668Z,16.30
2018-04-10T21:16:26.468Z,16.40
2018-04-10T21:18:54.796Z,16.40
2018-04-10T21:21:23.909Z,16.60
2018-04-10T21:23:52.219Z,16.60
2018-04-10T21:26:20.556Z,16.60
2018-04-10T21:28:49.613Z,16.50
2018-04-10T21:31:17.904Z,16.40
2018-04-10T21:33:46.451Z,16.30
2018-04-10T21:36:14.736Z,16.30
2018-04-10T21:38:43.028Z,16.20
2018-04-10T21:41:11.558Z,16.10
2018-04-10T21:43:39.849Z,16.00
2018-04-10T21:46:08.190Z,16.00
2018-04-10T21:48:36.656Z,16.10
2018-04-10T21:51:04.965Z,16.10
2018-04-10T21:53:34.241Z,16.10
2018-04-10T21:56:02.541Z,16.10
2018-04-10T21:58:31.581Z,16.00
2018-04-10T22:00:59.892Z,16.00
2018-04-10T22:03:28.218Z,16.10
2018-04-10T22:05:56.536Z,16.10
2018-04-10T22:08:24.941Z,16.00
2018-04-10T22:10:53.269Z,16.00
2018-04-10T22:13:22.323Z,16.00
2018-04-10T22:15:50.753Z,16.00
2018-04-10T22:18:19.047Z,15.90
2018-04-10T22:20:47.368Z,15.80
2018-04-10T22:23:15.660Z,15.90
2018-04-10T22:25:43.989Z,15.90
2018-04-10T22:28:13.079Z,15.90
2018-04-10T22:30:41.516Z,15.90
2018-04-10T22:33:10.549Z,15.70
2018-04-10T22:35:38.842Z,15.70
2018-04-10T22:38:07.246Z,15.60
2018-04-10T22:40:35.546Z,15.70
2018-04-10T22:43:03.848Z,15.80
2018-04-10T22:45:32.168Z,15.90
2018-04-10T22:48:00.461Z,15.80
2018-04-10T22:50:28.789Z,15.80
2018-04-10T22:52:57.117Z,15.80
2018-04-10T22:55:26.357Z,15.60
2018-04-10T22:57:55.422Z,15.50
2018-04-10T23:00:35.708Z,15.50
2018-04-10T23:03:03.765Z,15.50
2018-04-10T23:05:32.829Z,15.40
2018-04-10T23:08:01.157Z,15.40
2018-04-10T23:10:29.454Z,15.40
2018-04-10T23:12:57.781Z,15.30
2018-04-10T23:15:26.104Z,15.30
2018-04-10T23:17:55.209Z,15.20
2018-04-10T23:20:23.541Z,15.30
2018-04-10T23:22:51.833Z,15.20
2018-04-10T23:25:21.021Z,15.20
2018-04-10T23:27:49.348Z,15.20
2018-04-10T23:30:17.642Z,15.20
2018-04-10T23:32:45.936Z,15.10
2018-04-10T23:35:14.265Z,15.00
2018-04-10T23:37:43.333Z,15.00
2018-04-10T23:40:11.661Z,15.00
2018-04-10T23:42:39.972Z,14.90
2018-04-10T23:45:08.313Z,14.90
2018-04-10T23:47:36.618Z,14.90
2018-04-10T23:50:04.984Z,14.90
2018-04-10T23:52:33.309Z,14.90
2018-04-10T23:55:02.405Z,14.80
2018-04-10T23:57:30.696Z,14.80
2018-04-10T23:59:59.023Z,14.70
